Time;durP1;ratioP1;P1;durP2;ratioP2;P2;SDS_P1;SDS_P2;PMS_P1;PMS_P2;Temp;Humidity;BMP_temperature;BMP_pressure;BME280_temperature;BME280_humidity;BME280_pressure;Samples;Min_cycle;Max_cycle;Signal;HPM_P1;HPM_P2
2023/03/07 00:02:06;;;;;;;16.37;11.10;;;;;;;0.04;100.00;95026.00;5082928;28;20475;-74
2023/03/07 00:04:32;;;;;;;17.90;10.80;;;;;;;0.02;100.00;95020.34;4999917;28;20434;-74
2023/03/07 00:06:59;;;;;;;19.23;12.50;;;;;;;-0.16;100.00;94992.66;4983562;28;20943;-75
2023/03/07 00:09:26;;;;;;;15.93;12.60;;;;;;;-0.12;100.00;95007.38;4976901;28;20537;-74
2023/03/07 00:11:53;;;;;;;16.00;11.07;;;;;;;-0.12;100.00;94996.22;4987964;28;20456;-74
2023/03/07 00:14:20;;;;;;;18.30;12.43;;;;;;;0.03;100.00;95021.13;4996631;28;20431;-74
2023/03/07 00:16:50;;;;;;;18.70;11.93;;;;;;;0.01;100.00;95018.81;4999387;28;20868;-74
2023/03/07 00:19:17;;;;;;;17.37;10.87;;;;;;;-0.27;100.00;94979.09;4972312;28;20530;-75
2023/03/07 00:21:44;;;;;;;19.00;12.37;;;;;;;-0.11;100.00;95008.16;4973375;28;20470;-74
2023/03/07 00:24:11;;;;;;;22.13;12.77;;;;;;;-0.39;100.00;94952.88;4985032;28;20438;-74
2023/03/07 00:26:38;;;;;;;17.73;13.13;;;;;;;-0.01;100.00;95002.72;4994597;28;20427;-74
2023/03/07 00:29:06;;;;;;;17.60;11.70;;;;;;;-0.13;100.00;94976.50;5001493;28;20546;-75
2023/03/07 00:31:33;;;;;;;19.90;12.50;;;;;;;-0.03;100.00;94997.06;4983030;28;20458;-74
2023/03/07 00:34:01;;;;;;;19.57;13.17;;;;;;;0.00;100.00;95004.28;4987096;28;20431;-75
2023/03/07 00:36:28;;;;;;;16.10;10.00;;;;;;;-0.13;100.00;94972.09;5005211;28;20447;-74
2023/03/07 00:38:54;;;;;;;14.63;9.70;;;;;;;0.05;100.00;94998.22;4969061;28;20435;-74
2023/03/07 00:41:27;;;;;;;16.07;11.80;;;;;;;0.07;100.00;94999.44;5013944;28;20483;-74
2023/03/07 00:43:54;;;;;;;18.27;11.60;;;;;;;-0.07;100.00;94970.91;5083095;28;20874;-74
2023/03/07 00:46:23;;;;;;;13.10;10.20;;;;;;;0.03;100.00;94995.13;5086261;28;20444;-74
2023/03/07 00:48:50;;;;;;;17.90;11.60;;;;;;;-0.33;100.00;94934.31;5072742;28;20934;-74
2023/03/07 00:51:19;;;;;;;15.60;11.87;;;;;;;0.04;100.00;94979.25;5060058;28;20424;-74
2023/03/07 00:53:45;;;;;;;19.83;11.70;;;;;;;-0.15;100.00;94944.84;5083138;28;20428;-76
2023/03/07 00:56:14;;;;;;;21.20;12.23;;;;;;;0.06;100.00;94984.16;5072717;28;20425;-74
2023/03/07 00:58:44;;;;;;;14.47;9.90;;;;;;;-0.01;100.00;94974.16;5084070;28;20435;-74
2023/03/07 01:01:13;;;;;;;18.63;13.70;;;;;;;0.01;100.00;94961.66;5073870;28;20510;-74
2023/03/07 01:03:40;;;;;;;13.70;10.60;;;;;;;0.08;100.00;94969.03;5072432;28;20439;-74
2023/03/07 01:06:12;;;;;;;12.90;10.00;;;;;;;-0.16;100.00;94923.31;5059253;28;20955;-74
2023/03/07 01:08:40;;;;;;;16.50;9.47;;;;;;;-0.22;100.00;94926.31;5055825;28;20450;-74
2023/03/07 01:11:07;;;;;;;16.63;11.83;;;;;;;-0.25;100.00;94914.69;5047872;28;20837;-75
2023/03/07 01:13:35;;;;;;;21.57;13.00;;;;;;;0.06;100.00;94965.97;5067059;28;20434;-74
2023/03/07 01:16:18;;;;;;;20.70;12.70;;;;;;;0.05;100.00;94967.03;5072309;28;20473;-74
2023/03/07 01:18:49;;;;;;;23.03;13.20;;;;;;;-0.29;100.00;94898.13;5085795;28;20482;-74
2023/03/07 01:21:17;;;;;;;19.20;13.17;;;;;;;0.08;100.00;94953.44;5083782;28;20459;-74
2023/03/07 01:23:44;;;;;;;18.87;12.93;;;;;;;0.04;100.00;94947.31;5073438;28;20948;-74
2023/03/07 01:26:20;;;;;;;26.03;13.60;;;;;;;-0.10;100.00;94921.38;5073361;28;20427;-74
2023/03/07 01:28:49;;;;;;;20.57;13.20;;;;;;;0.11;100.00;94945.84;5068842;28;20487;-75
2023/03/07 01:31:16;;;;;;;23.80;13.67;;;;;;;-0.18;100.00;94903.88;5058490;28;20437;-74
2023/03/07 01:33:43;;;;;;;15.43;10.40;;;;;;;-0.23;100.00;94889.19;5071818;28;20932;-74
2023/03/07 01:36:24;;;;;;;21.97;12.70;;;;;;;0.09;100.00;94942.75;5085342;28;20431;-74
2023/03/07 01:38:54;;;;;;;20.83;14.53;;;;;;;0.12;100.00;94939.56;5081322;28;20861;-74
2023/03/07 01:41:21;;;;;;;21.97;12.40;;;;;;;0.11;100.00;94945.06;5078249;28;20816;-74
2023/03/07 01:43:50;;;;;;;18.43;11.93;;;;;;;-0.17;100.00;94895.78;5081466;28;20468;-74
2023/03/07 01:46:25;;;;;;;20.03;12.33;;;;;;;0.08;100.00;94930.06;5089471;28;20485;-75
2023/03/07 01:48:59;;;;;;;15.80;11.07;;;;;;;0.05;100.00;94918.44;5079636;28;20442;-73
2023/03/07 01:51:28;;;;;;;17.53;11.73;;;;;;;0.06;100.00;94906.22;5085180;28;20452;-73
2023/03/07 01:54:00;;;;;;;19.03;13.87;;;;;;;0.08;100.00;94904.09;5084929;28;20446;-75
2023/03/07 01:56:27;;;;;;;16.80;13.77;;;;;;;-0.08;100.00;94869.91;5079158;28;20479;-74
2023/03/07 01:58:54;;;;;;;20.43;12.17;;;;;;;-0.03;100.00;94874.97;5059045;28;20777;-74
2023/03/07 02:01:22;;;;;;;17.43;11.97;;;;;;;0.10;100.00;94900.13;5066980;28;20559;-74
2023/03/07 02:03:58;;;;;;;19.03;13.23;;;;;;;-0.07;100.00;94868.84;5085038;28;20465;-74
2023/03/07 02:06:27;;;;;;;18.77;12.27;;;;;;;-0.12;100.00;94856.75;5071291;28;20493;-74
2023/03/07 02:08:55;;;;;;;14.50;10.77;;;;;;;0.13;100.00;94896.94;5074460;28;20859;-74
2023/03/07 02:11:22;;;;;;;19.67;11.63;;;;;;;0.04;100.00;94879.78;5070866;28;20476;-74
2023/03/07 02:13:51;;;;;;;16.10;9.70;;;;;;;-0.09;100.00;94866.53;5065270;28;20806;-74
2023/03/07 02:16:18;;;;;;;15.73;12.23;;;;;;;-0.02;100.00;94874.69;5081676;28;20546;-73
2023/03/07 02:18:48;;;;;;;19.50;11.93;;;;;;;-0.27;100.00;94840.72;5061833;28;20440;-74
2023/03/07 02:21:32;;;;;;;17.57;11.80;;;;;;;-0.17;100.00;94849.06;5082195;28;20517;-74
2023/03/07 02:24:24;;;;;;;23.93;12.77;;;;;;;-0.03;100.00;94864.59;5048444;28;20435;-74
2023/03/07 02:26:52;;;;;;;18.97;12.07;;;;;;;-0.03;100.00;94862.00;5077573;28;20439;-74
2023/03/07 02:29:19;;;;;;;17.97;12.73;;;;;;;0.11;100.00;94880.13;5080061;28;20447;-74
2023/03/07 02:31:46;;;;;;;21.17;14.83;;;;;;;0.02;100.00;94874.88;5084357;28;20506;-74
2023/03/07 02:34:31;;;;;;;24.90;11.60;;;;;;;0.09;100.00;94877.81;5082518;28;20502;-75
2023/03/07 02:37:10;;;;;;;18.80;12.60;;;;;;;0.08;100.00;94881.47;5067839;28;20461;-74
2023/03/07 02:39:40;;;;;;;18.33;10.60;;;;;;;0.08;100.00;94878.88;5077528;28;20539;-74
2023/03/07 02:42:12;;;;;;;19.27;11.53;;;;;;;-0.15;100.00;94833.19;5061244;28;20839;-74
2023/03/07 02:44:56;;;;;;;18.70;11.70;;;;;;;-0.08;100.00;94839.50;5050709;28;20463;-74
2023/03/07 02:47:24;;;;;;;18.53;14.10;;;;;;;0.02;100.00;94853.34;5050801;28;20467;-75
2023/03/07 02:49:51;;;;;;;16.20;11.90;;;;;;;0.02;100.00;94846.31;5084030;28;20501;-74
2023/03/07 02:52:20;;;;;;;17.83;10.43;;;;;;;-0.09;100.00;94839.81;5084016;28;20455;-74
2023/03/07 02:54:47;;;;;;;16.90;11.73;;;;;;;0.06;100.00;94857.63;5061878;28;20946;-74
2023/03/07 02:57:15;;;;;;;17.80;12.47;;;;;;;0.16;100.00;94872.22;5077340;28;20419;-74
2023/03/07 02:59:41;;;;;;;20.50;10.53;;;;;;;0.09;100.00;94858.88;5078466;28;20442;-74
2023/03/07 03:02:08;;;;;;;26.80;13.70;;;;;;;-0.14;100.00;94832.88;5076988;28;20534;-74
2023/03/07 03:04:35;;;;;;;19.07;11.00;;;;;;;0.05;100.00;94857.94;5082197;28;20519;-74
2023/03/07 03:07:01;;;;;;;18.30;12.10;;;;;;;-0.05;100.00;94845.94;5067506;28;20435;-74
2023/03/07 03:09:28;;;;;;;14.03;10.27;;;;;;;0.03;100.00;94847.06;5062517;28;20469;-74
2023/03/07 03:11:55;;;;;;;17.17;11.87;;;;;;;0.09;100.00;94853.66;5062995;28;20469;-74
2023/03/07 03:14:24;;;;;;;16.20;12.50;;;;;;;0.16;100.00;94862.59;5054241;28;20445;-74
2023/03/07 03:16:52;;;;;;;18.43;12.10;;;;;;;0.06;100.00;94847.25;5055319;28;20813;-74
2023/03/07 03:19:20;;;;;;;19.73;10.87;;;;;;;0.13;100.00;94849.41;5051186;28;20813;-75
2023/03/07 03:21:47;;;;;;;18.07;10.80;;;;;;;0.09;100.00;94843.28;5060202;28;21037;-74
2023/03/07 03:24:15;;;;;;;16.70;10.87;;;;;;;-0.10;100.00;94823.47;5065015;28;20971;-74
2023/03/07 03:26:43;;;;;;;16.30;11.27;;;;;;;0.14;100.00;94856.94;5083924;28;20443;-74
2023/03/07 03:29:10;;;;;;;14.50;10.33;;;;;;;0.11;100.00;94854.13;5080188;28;20434;-74
2023/03/07 03:31:38;;;;;;;15.80;10.93;;;;;;;0.11;100.00;94849.72;5076717;28;20464;-74
2023/03/07 03:34:05;;;;;;;17.87;11.53;;;;;;;-0.02;100.00;94825.31;5060665;28;20444;-74
2023/03/07 03:36:32;;;;;;;16.93;10.03;;;;;;;-0.06;100.00;94824.38;5086914;28;20453;-74
2023/03/07 03:39:05;;;;;;;19.27;10.63;;;;;;;0.13;100.00;94852.78;5079909;28;20440;-74
2023/03/07 03:41:32;;;;;;;19.23;11.20;;;;;;;0.04;100.00;94843.41;5083682;28;20468;-74
2023/03/07 03:43:59;;;;;;;18.77;9.97;;;;;;;0.02;100.00;94835.16;5080884;28;20443;-74
2023/03/07 03:46:28;;;;;;;21.83;11.93;;;;;;;-0.14;100.00;94816.53;5060438;28;20435;-74
2023/03/07 03:48:55;;;;;;;12.80;9.03;;;;;;;-0.27;100.00;94799.94;5059097;28;20433;-74
2023/03/07 03:51:26;;;;;;;17.23;11.87;;;;;;;-0.14;100.00;94835.47;5050435;28;20460;-74
2023/03/07 03:53:56;;;;;;;19.80;12.20;;;;;;;-0.04;100.00;94832.66;5057340;28;20447;-74
2023/03/07 03:56:25;;;;;;;18.33;11.33;;;;;;;0.06;100.00;94843.88;5076642;28;21228;-74
2023/03/07 03:58:54;;;;;;;17.93;11.40;;;;;;;0.02;100.00;94848.13;5057695;28;20445;-75
2023/03/07 04:01:23;;;;;;;13.00;7.77;;;;;;;-0.12;100.00;94837.81;5084267;28;20459;-74
2023/03/07 04:03:52;;;;;;;15.20;10.20;;;;;;;0.01;100.00;94849.19;5066556;28;20467;-74
2023/03/07 04:06:27;;;;;;;17.80;11.03;;;;;;;-0.02;100.00;94833.13;5083181;28;20428;-74
2023/03/07 04:08:55;;;;;;;18.90;11.23;;;;;;;-0.03;100.00;94836.78;5071113;28;20447;-74
2023/03/07 04:11:23;;;;;;;17.17;11.23;;;;;;;-0.14;100.00;94822.50;5090013;28;20420;-75
2023/03/07 04:13:50;;;;;;;18.73;12.23;;;;;;;-0.05;100.00;94833.72;5063212;28;20439;-74
2023/03/07 04:16:21;;;;;;;19.80;10.63;;;;;;;-0.07;100.00;94835.09;5066373;28;20486;-74
2023/03/07 04:18:49;;;;;;;23.07;12.60;;;;;;;-0.31;100.00;94810.16;5075094;28;20539;-74
2023/03/07 04:21:17;;;;;;;16.37;10.20;;;;;;;-0.35;100.00;94787.69;5074442;28;20432;-75
2023/03/07 04:23:44;;;;;;;17.37;10.67;;;;;;;-0.33;100.00;94793.34;5070044;28;20543;-75
2023/03/07 04:26:11;;;;;;;16.27;10.30;;;;;;;-0.32;100.00;94797.47;5085689;28;20430;-74
2023/03/07 04:28:45;;;;;;;18.53;10.33;;;;;;;-0.11;100.00;94821.94;5080958;28;20423;-74
2023/03/07 04:31:16;;;;;;;13.50;8.80;;;;;;;-0.18;100.00;94823.38;5078741;28;20497;-75
2023/03/07 04:33:44;;;;;;;19.70;13.00;;;;;;;-0.22;100.00;94817.25;5073195;28;20435;-74
2023/03/07 04:36:13;;;;;;;18.17;11.50;;;;;;;-0.23;100.00;94808.69;5087559;28;20450;-74
2023/03/07 04:38:40;;;;;;;14.30;10.00;;;;;;;-0.43;100.00;94775.41;5085027;28;20482;-74
2023/03/07 04:41:11;;;;;;;18.30;11.67;;;;;;;-0.27;100.00;94799.94;5072726;28;20436;-74
2023/03/07 04:43:38;;;;;;;17.37;11.00;;;;;;;-0.32;100.00;94794.88;5082049;28;20431;-74
2023/03/07 04:46:05;;;;;;;17.93;10.90;;;;;;;-0.50;100.00;94762.06;5080937;28;20443;-74
2023/03/07 04:48:32;;;;;;;19.60;12.47;;;;;;;-0.48;100.00;94776.28;5084890;28;21011;-74
2023/03/07 04:50:58;;;;;;;15.97;11.50;;;;;;;-0.36;100.00;94793.94;5072714;28;20538;-74
2023/03/07 04:53:26;;;;;;;18.53;12.43;;;;;;;-0.64;100.00;94756.94;5082293;28;20444;-74
2023/03/07 04:56:00;;;;;;;18.20;12.53;;;;;;;-0.37;100.00;94782.03;5080899;28;20794;-75
2023/03/07 04:58:28;;;;;;;15.73;12.87;;;;;;;-0.36;100.00;94793.94;5092880;28;20500;-74
2023/03/07 05:00:58;;;;;;;17.53;12.37;;;;;;;-0.34;100.00;94794.41;5079206;28;20434;-74
2023/03/07 05:03:26;;;;;;;25.30;18.20;;;;;;;-0.38;100.00;94789.03;5080663;28;20468;-74
2023/03/07 05:05:53;;;;;;;18.33;13.50;;;;;;;-0.42;100.00;94784.72;5059194;28;20432;-73
2023/03/07 05:08:21;;;;;;;22.00;14.10;;;;;;;-0.49;100.00;94779.19;5060477;28;20480;-74
2023/03/07 05:10:48;;;;;;;25.70;19.20;;;;;;;-0.43;100.00;94775.41;5072223;28;20440;-74
2023/03/07 05:13:15;;;;;;;25.43;17.83;;;;;;;-0.50;100.00;94780.25;5072373;28;20839;-73
2023/03/07 05:15:42;;;;;;;21.33;13.50;;;;;;;-0.62;100.00;94767.78;5086002;28;20865;-73
2023/03/07 05:18:08;;;;;;;18.60;12.90;;;;;;;-0.96;100.00;94737.13;5086383;28;20994;-73
2023/03/07 05:20:35;;;;;;;23.77;15.20;;;;;;;-0.91;100.00;94743.00;5078999;28;20484;-73
2023/03/07 05:23:02;;;;;;;22.47;14.97;;;;;;;-0.88;100.00;94738.28;5086163;28;20464;-74
2023/03/07 05:25:28;;;;;;;21.77;14.77;;;;;;;-1.04;100.00;94719.69;5062169;28;20875;-73
2023/03/07 05:27:55;;;;;;;20.97;13.63;;;;;;;-0.76;100.00;94769.66;5059282;28;20433;-74
2023/03/07 05:30:22;;;;;;;18.10;12.10;;;;;;;-0.94;100.00;94743.56;5085462;28;20519;-73
2023/03/07 05:32:50;;;;;;;19.50;12.23;;;;;;;-0.91;100.00;94752.59;5085222;28;20447;-73
2023/03/07 05:35:17;;;;;;;21.23;12.83;;;;;;;-0.82;100.00;94758.59;5085301;28;20432;-73
2023/03/07 05:37:45;;;;;;;20.87;14.40;;;;;;;-0.93;100.00;94745.09;5071834;28;20436;-73
2023/03/07 05:40:12;;;;;;;17.60;13.30;;;;;;;-0.88;100.00;94748.66;5079423;28;20447;-73
2023/03/07 05:42:44;;;;;;;24.17;13.80;;;;;;;-0.81;100.00;94765.31;5090268;28;20895;-73
2023/03/07 05:45:11;;;;;;;18.67;13.37;;;;;;;-1.28;100.00;94678.44;5080364;28;20536;-74
2023/03/07 05:47:38;;;;;;;20.60;13.57;;;;;;;-0.81;100.00;94754.94;5066839;28;20439;-73
2023/03/07 05:50:08;;;;;;;22.77;14.17;;;;;;;-0.85;100.00;94750.66;5063999;28;20462;-73
2023/03/07 05:52:36;;;;;;;19.77;12.77;;;;;;;-1.20;100.00;94693.31;5058082;28;20473;-73
2023/03/07 05:55:03;;;;;;;19.90;12.53;;;;;;;-0.73;100.00;94762.03;5080448;28;20431;-73
2023/03/07 05:57:31;;;;;;;18.93;13.33;;;;;;;-0.84;100.00;94739.22;5078497;28;20531;-74
2023/03/07 05:59:58;;;;;;;20.57;13.07;;;;;;;-1.86;100.00;94591.06;5065602;28;20432;-73
2023/03/07 06:02:24;;;;;;;28.50;15.00;;;;;;;-0.84;100.00;94731.44;5067965;28;20540;-73
2023/03/07 06:04:52;;;;;;;16.67;11.70;;;;;;;-0.83;100.00;94715.56;5080854;28;20427;-74
2023/03/07 06:07:19;;;;;;;17.77;12.93;;;;;;;-0.62;100.00;94747.03;5077686;28;20431;-73
2023/03/07 06:09:46;;;;;;;20.60;12.90;;;;;;;-0.91;100.00;94705.91;5081516;28;20440;-74
2023/03/07 06:12:13;;;;;;;24.63;13.83;;;;;;;-0.54;100.00;94753.31;5070641;28;20448;-74
2023/03/07 06:14:39;;;;;;;21.37;12.97;;;;;;;-0.76;100.00;94735.94;5054631;28;20440;-74
2023/03/07 06:17:06;;;;;;;22.07;14.23;;;;;;;-0.60;100.00;94748.25;5058606;28;20441;-74
2023/03/07 06:19:33;;;;;;;23.33;13.77;;;;;;;-0.72;100.00;94724.66;5080487;28;20502;-74
2023/03/07 06:22:00;;;;;;;17.07;10.80;;;;;;;-0.72;100.00;94726.50;5067732;28;20468;-74
2023/03/07 06:24:28;;;;;;;16.70;11.87;;;;;;;-0.55;100.00;94749.19;5065247;28;20446;-74
2023/03/07 06:26:55;;;;;;;18.50;11.60;;;;;;;-0.50;100.00;94754.28;5077673;28;20947;-75
2023/03/07 06:29:23;;;;;;;19.80;11.87;;;;;;;-0.42;100.00;94769.16;5079645;28;20498;-74
2023/03/07 06:31:50;;;;;;;19.60;12.27;;;;;;;-0.71;100.00;94723.59;5067558;28;20547;-74
2023/03/07 06:34:17;;;;;;;19.83;13.33;;;;;;;-0.63;100.00;94735.13;5083629;28;20430;-74
2023/03/07 06:36:47;;;;;;;23.30;13.93;;;;;;;-0.79;100.00;94713.94;5077336;28;20471;-72
2023/03/07 06:39:19;;;;;;;19.60;12.80;;;;;;;-0.52;100.00;94764.22;5078257;28;20464;-72
2023/03/07 06:41:49;;;;;;;18.23;13.07;;;;;;;-0.33;100.00;94777.78;5064819;28;21032;-72
2023/03/07 06:44:16;;;;;;;20.30;12.73;;;;;;;-0.38;100.00;94757.13;5077252;28;20429;-73
2023/03/07 06:46:43;;;;;;;17.17;9.63;;;;;;;-0.60;100.00;94726.75;5066775;28;20428;-72
2023/03/07 06:49:13;;;;;;;18.93;11.47;;;;;;;-0.34;100.00;94777.00;5084199;28;20956;-72
2023/03/07 06:51:41;;;;;;;19.37;13.03;;;;;;;-0.44;100.00;94737.53;5079144;28;20520;-72
2023/03/07 06:54:08;;;;;;;16.87;10.97;;;;;;;-0.31;100.00;94760.81;5077102;28;20461;-72
2023/03/07 06:56:34;;;;;;;18.20;11.87;;;;;;;-0.33;100.00;94772.56;5065650;28;20456;-72
2023/03/07 06:59:02;;;;;;;11.73;9.17;;;;;;;-0.31;100.00;94767.84;5069242;28;20435;-72
2023/03/07 07:01:29;;;;;;;18.10;10.83;;;;;;;-0.27;100.00;94778.41;5065624;28;20467;-74
2023/03/07 07:03:58;;;;;;;16.60;10.00;;;;;;;-0.47;100.00;94740.72;5073044;28;20476;-74
2023/03/07 07:06:26;;;;;;;20.97;12.07;;;;;;;-0.38;100.00;94750.09;5064880;28;20443;-73
2023/03/07 07:08:54;;;;;;;20.13;11.13;;;;;;;-0.33;100.00;94746.63;5084398;28;20930;-74
2023/03/07 07:11:24;;;;;;;19.57;12.20;;;;;;;-0.38;100.00;94733.78;5050648;28;20499;-74
2023/03/07 07:13:51;;;;;;;14.30;10.73;;;;;;;-0.37;100.00;94738.66;5080828;28;20493;-74
2023/03/07 07:16:19;;;;;;;13.00;8.23;;;;;;;-0.12;100.00;94776.25;5064480;28;20434;-74
2023/03/07 07:18:50;;;;;;;16.30;9.47;;;;;;;-0.21;100.00;94756.47;5072807;28;20433;-74
2023/03/07 07:21:17;;;;;;;15.90;9.87;;;;;;;-0.17;100.00;94760.00;5050295;28;20451;-74
2023/03/07 07:23:45;;;;;;;14.57;10.67;;;;;;;-0.07;100.00;94767.56;5056765;28;20491;-73
2023/03/07 07:26:12;;;;;;;15.80;10.77;;;;;;;-0.25;100.00;94745.91;5058530;28;20437;-74
2023/03/07 07:28:39;;;;;;;19.90;11.20;;;;;;;-0.18;100.00;94754.03;5058733;28;20435;-73
2023/03/07 07:31:07;;;;;;;13.30;9.10;;;;;;;-0.26;100.00;94743.63;5078175;28;20459;-73
2023/03/07 07:33:35;;;;;;;10.90;8.77;;;;;;;-0.27;100.00;94742.06;5067219;28;21007;-74
2023/03/07 07:36:04;;;;;;;17.90;11.20;;;;;;;-0.67;100.00;94682.25;5066365;28;20482;-74
2023/03/07 07:38:33;;;;;;;17.20;10.53;;;;;;;-0.03;100.00;94773.69;5076605;28;20439;-74
2023/03/07 07:41:01;;;;;;;17.20;11.03;;;;;;;0.02;100.00;94781.38;5057138;28;20464;-74
2023/03/07 07:43:29;;;;;;;15.10;10.40;;;;;;;0.02;100.00;94785.78;5076318;28;20554;-74
2023/03/07 07:46:27;;;;;;;14.80;9.90;;;;;;;0.09;100.00;94786.13;5054112;28;20440;-74
2023/03/07 07:48:54;;;;;;;21.30;13.83;;;;;;;0.09;100.00;94783.53;5054042;28;20535;-74
2023/03/07 07:51:21;;;;;;;14.10;10.47;;;;;;;0.05;100.00;94772.97;5078111;28;20435;-74
2023/03/07 07:53:48;;;;;;;16.83;11.40;;;;;;;0.00;100.00;94765.31;5082553;28;20444;-74
2023/03/07 07:56:14;;;;;;;16.23;11.93;;;;;;;0.01;100.00;94761.66;5070609;28;20522;-74
2023/03/07 07:58:41;;;;;;;13.77;9.10;;;;;;;0.03;100.00;94756.91;5085362;28;20484;-74
2023/03/07 08:01:20;;;;;;;14.07;11.17;;;;;;;-0.01;100.00;94755.97;5063614;28;20499;-74
2023/03/07 08:03:47;;;;;;;17.13;12.07;;;;;;;0.18;100.00;94776.56;5063725;28;20539;-74
2023/03/07 08:06:21;;;;;;;13.70;9.47;;;;;;;0.17;100.00;94767.22;5067389;28;20429;-74
2023/03/07 08:08:48;;;;;;;17.93;10.60;;;;;;;0.33;100.00;94794.34;5080178;28;20867;-74
2023/03/07 08:11:16;;;;;;;12.27;9.03;;;;;;;0.35;100.00;94791.47;5085901;28;20801;-74
2023/03/07 08:13:43;;;;;;;13.87;9.73;;;;;;;0.39;100.00;94792.38;5086900;28;20820;-74
2023/03/07 08:16:13;;;;;;;14.47;11.00;;;;;;;0.47;100.00;94795.03;5083080;28;20877;-74
2023/03/07 08:18:41;;;;;;;19.70;10.87;;;;;;;0.53;100.00;94785.25;5068406;28;20435;-74
2023/03/07 08:21:07;;;;;;;13.03;9.37;;;;;;;0.38;100.00;94751.88;5066108;28;20999;-74
2023/03/07 08:23:35;;;;;;;18.00;11.50;;;;;;;0.64;100.00;94778.72;5056476;28;20926;-74
2023/03/07 08:26:03;;;;;;;15.40;10.73;;;;;;;0.61;100.00;94768.16;5073167;28;20436;-74
2023/03/07 08:28:31;;;;;;;17.77;11.53;;;;;;;0.87;100.00;94787.22;5077722;28;20440;-74
2023/03/07 08:31:05;;;;;;;14.17;8.10;;;;;;;0.71;100.00;94752.28;5081799;28;20431;-74
2023/03/07 08:33:31;;;;;;;10.83;9.53;;;;;;;0.89;100.00;94793.66;5069978;28;20936;-74
2023/03/07 08:35:58;;;;;;;18.20;10.37;;;;;;;0.70;100.00;94746.34;5086701;28;20531;-74
2023/03/07 08:38:25;;;;;;;29.93;10.00;;;;;;;0.87;100.00;94771.59;5057244;28;20431;-74
2023/03/07 08:40:53;;;;;;;19.63;11.53;;;;;;;0.71;100.00;94739.28;5074302;28;20424;-75
2023/03/07 08:43:20;;;;;;;16.30;10.23;;;;;;;0.90;100.00;94768.41;5069616;28;20470;-74
2023/03/07 08:45:49;;;;;;;15.40;10.00;;;;;;;0.78;100.00;94739.59;5085594;28;20467;-74
2023/03/07 08:48:16;;;;;;;20.43;12.63;;;;;;;1.05;100.00;94773.16;5062723;28;20436;-74
2023/03/07 08:50:42;;;;;;;11.53;6.80;;;;;;;0.89;100.00;94741.63;5059591;28;20441;-74
2023/03/07 08:53:09;;;;;;;16.60;9.90;;;;;;;0.81;100.00;94737.19;5052703;28;20460;-74
2023/03/07 08:55:36;;;;;;;17.80;11.80;;;;;;;0.96;100.00;94756.03;5079260;28;20439;-74
2023/03/07 08:58:02;;;;;;;16.10;10.63;;;;;;;0.69;100.00;94710.22;5085568;28;20424;-74
2023/03/07 09:00:29;;;;;;;17.40;10.77;;;;;;;1.21;100.00;94783.94;5086102;28;20911;-74
2023/03/07 09:03:00;;;;;;;16.33;9.93;;;;;;;1.16;100.00;94766.59;5079239;28;20888;-74
2023/03/07 09:05:28;;;;;;;15.47;9.63;;;;;;;1.28;100.00;94776.41;5079117;28;20436;-74
2023/03/07 09:07:55;;;;;;;11.50;8.10;;;;;;;1.34;100.00;94788.22;5068088;28;20940;-75
2023/03/07 09:10:22;;;;;;;15.40;10.70;;;;;;;1.33;100.00;94776.25;5087101;28;20431;-74
2023/03/07 09:12:54;;;;;;;16.30;10.33;;;;;;;1.30;100.00;94776.13;5100995;28;20452;-74
2023/03/07 09:15:21;;;;;;;18.40;10.00;;;;;;;1.12;100.00;94744.09;5072282;28;20496;-74
2023/03/07 09:17:48;;;;;;;16.63;11.53;;;;;;;1.15;100.00;94746.09;5081717;28;20427;-74
2023/03/07 09:20:15;;;;;;;16.13;10.40;;;;;;;1.22;100.00;94748.25;5078892;28;20452;-74
2023/03/07 09:22:42;;;;;;;16.17;11.43;;;;;;;1.41;100.00;94761.72;5082511;28;20968;-74
2023/03/07 09:25:08;;;;;;;16.20;12.00;;;;;;;1.39;100.00;94748.25;5085610;28;20438;-74
2023/03/07 09:27:35;;;;;;;12.37;8.50;;;;;;;1.05;100.00;94733.38;5083520;28;20420;-74
2023/03/07 09:30:03;;;;;;;18.17;10.40;;;;;;;1.35;100.00;94770.78;5061916;28;20474;-74
2023/03/07 09:32:32;;;;;;;8.73;7.70;;;;;;;1.23;100.00;94768.00;5061990;28;20995;-75
2023/03/07 09:34:59;;;;;;;17.63;10.13;;;;;;;1.27;100.00;94753.31;5070197;28;20444;-75
2023/03/07 09:37:26;;;;;;;13.40;9.87;;;;;;;1.07;100.00;94718.22;5083813;28;20419;-74
2023/03/07 09:39:53;;;;;;;14.30;10.30;;;;;;;1.33;100.00;94768.44;5078544;28;20982;-74
2023/03/07 09:42:33;;;;;;;16.07;10.67;;;;;;;1.36;100.00;94760.06;5082216;28;20527;-74
2023/03/07 09:45:31;;;;;;;15.30;10.63;;;;;;;1.40;100.00;94755.75;5085210;28;20448;-75
2023/03/07 09:48:43;;;;;;;17.20;9.67;;;;;;;1.38;100.00;94749.34;5084973;28;20459;-74
2023/03/07 09:51:20;;;;;;;16.30;10.07;;;;;;;1.47;100.00;94758.69;5032220;28;20440;-74
2023/03/07 09:53:54;;;;;;;14.93;10.90;;;;;;;1.51;100.00;94760.66;5054981;28;20434;-74
2023/03/07 09:56:39;;;;;;;12.17;9.77;;;;;;;1.56;100.00;94742.28;5058013;28;20436;-74
2023/03/07 09:59:37;;;;;;;15.40;9.67;;;;;;;1.51;100.00;94745.81;5084904;28;20439;-75
2023/03/07 10:02:24;;;;;;;13.80;10.57;;;;;;;1.62;100.00;94747.03;5085749;28;20490;-74
2023/03/07 10:05:00;;;;;;;17.30;9.27;;;;;;;1.53;100.00;94715.00;5071054;28;20455;-74
2023/03/07 10:07:28;;;;;;;15.63;10.27;;;;;;;1.50;100.00;94701.84;5077909;28;20526;-75
2023/03/07 10:09:59;;;;;;;14.80;10.00;;;;;;;1.59;100.00;94713.78;5081991;28;20434;-74
2023/03/07 10:12:47;;;;;;;13.40;10.47;;;;;;;1.82;100.00;94735.19;5057925;28;20460;-74
2023/03/07 10:15:24;;;;;;;12.83;9.40;;;;;;;1.91;100.00;94732.59;5084841;28;20462;-75
2023/03/07 10:18:07;;;;;;;13.13;8.90;;;;;;;1.69;100.00;94674.38;5081055;28;20433;-75
2023/03/07 10:20:50;;;;;;;14.37;11.33;;;;;;;1.95;100.00;94686.59;5072131;28;20443;-75
2023/03/07 10:23:40;;;;;;;18.70;10.50;;;;;;;2.41;100.00;94716.34;5072330;28;20952;-75
2023/03/07 10:26:22;;;;;;;14.90;9.73;;;;;;;2.55;100.00;94712.44;5054416;28;20461;-75
2023/03/07 10:28:49;;;;;;;10.73;8.20;;;;;;;2.53;100.00;94700.75;5064500;28;20549;-75
2023/03/07 10:31:35;;;;;;;11.47;8.70;;;;;;;2.71;100.00;94696.22;5065349;28;20455;-75
2023/03/07 10:34:15;;;;;;;10.43;7.77;;;;;;;2.84;100.00;94719.47;5052684;28;20443;-75
2023/03/07 10:36:59;;;;;;;12.00;9.13;;;;;;;2.90;100.00;94710.38;5056958;28;20849;-75
2023/03/07 10:39:43;;;;;;;11.17;8.47;;;;;;;2.73;100.00;94678.41;5072646;28;20431;-75
2023/03/07 10:42:11;;;;;;;14.97;8.70;;;;;;;2.91;100.00;94691.00;5081562;28;20586;-74
2023/03/07 10:44:39;;;;;;;9.50;7.73;;;;;;;3.01;100.00;94702.16;5067442;28;20597;-74
2023/03/07 10:47:17;;;;;;;14.00;9.23;;;;;;;3.18;100.00;94704.66;5080329;28;20427;-74
2023/03/07 10:49:46;;;;;;;15.30;8.30;;;;;;;3.21;100.00;94701.44;5056057;28;20431;-75
2023/03/07 10:52:28;;;;;;;10.97;7.80;;;;;;;3.18;100.00;94689.75;5070497;28;20459;-75
2023/03/07 10:55:33;;;;;;;10.70;8.00;;;;;;;3.30;100.00;94698.72;5066445;28;20425;-75
2023/03/07 10:58:18;;;;;;;10.13;7.80;;;;;;;3.30;100.00;94694.28;5078574;28;20427;-75
2023/03/07 11:01:07;;;;;;;14.07;7.53;;;;;;;3.23;100.00;94694.81;5077171;28;20939;-75
2023/03/07 11:03:37;;;;;;;10.53;7.97;;;;;;;3.25;100.00;94684.03;5078818;28;20456;-75
2023/03/07 11:06:44;;;;;;;9.73;7.77;;;;;;;3.31;100.00;94676.75;5060685;28;20928;-75
2023/03/07 11:09:23;;;;;;;16.00;8.03;;;;;;;3.21;100.00;94672.72;5053750;28;20811;-75
2023/03/07 11:11:55;;;;;;;11.80;7.83;;;;;;;3.09;100.00;94651.75;5070564;28;20452;-74
2023/03/07 11:14:23;;;;;;;10.13;7.20;;;;;;;3.31;100.00;94674.91;5070443;28;20440;-74
2023/03/07 11:16:51;;;;;;;10.20;5.47;;;;;;;3.25;100.00;94665.75;5070393;28;20948;-74
2023/03/07 11:19:42;;;;;;;8.90;6.83;;;;;;;3.20;100.00;94673.75;5059947;28;20471;-74
2023/03/07 11:22:17;;;;;;;15.30;8.50;;;;;;;3.04;100.00;94641.50;5086327;28;20872;-74
2023/03/07 11:25:19;;;;;;;5.70;5.20;;;;;;;2.99;100.00;94631.25;5074421;28;20451;-74
2023/03/07 11:27:45;;;;;;;11.13;8.37;;;;;;;3.43;100.00;94656.66;5033869;28;20523;-74
2023/03/07 11:30:18;;;;;;;8.80;7.33;;;;;;;3.56;100.00;94645.19;5090564;28;20912;-75